Time;durP1;ratioP1;P1;durP2;ratioP2;P2;SDS_P1;SDS_P2;PMS_P1;PMS_P2;Temp;Humidity;BMP_temperature;BMP_pressure;BME280_temperature;BME280_humidity;BME280_pressure;Samples;Min_cycle;Max_cycle;Signal;HPM_P1;HPM_P2
2021/11/15 00:00:43;;;;;;;;;58.25;43.50;;;;;9.31;92.22;101999.69;5061259;28;45242;-56
2021/11/15 00:03:10;;;;;;;;;58.00;43.00;;;;;9.30;92.35;102000.53;5055414;28;45268;-57
2021/11/15 00:05:35;;;;;;;;;62.25;46.00;;;;;9.29;92.66;101997.97;5061162;28;46183;-58
2021/11/15 00:08:01;;;;;;;;;57.50;44.75;;;;;9.29;92.24;102004.00;5062195;28;45285;-59
2021/11/15 00:10:26;;;;;;;;;57.75;43.25;;;;;9.31;92.09;102010.06;5061953;28;45245;-68
2021/11/15 00:12:52;;;;;;;;;57.75;40.75;;;;;9.29;92.47;102006.59;5061881;28;45251;-64
2021/11/15 00:15:19;;;;;;;;;50.75;40.25;;;;;9.30;92.22;102012.66;5061820;28;45943;-65
2021/11/15 00:17:45;;;;;;;;;54.75;39.00;;;;;9.22;92.52;102007.50;5061311;28;45340;-63
2021/11/15 00:20:11;;;;;;;;;60.00;43.50;;;;;9.20;92.65;101996.22;5061898;28;45521;-63
2021/11/15 00:22:36;;;;;;;;;51.75;40.00;;;;;9.21;92.19;102003.16;5060896;28;46603;-64
2021/11/15 00:25:04;;;;;;;;;54.50;41.75;;;;;9.18;91.73;102008.34;5048411;28;45387;-65
2021/11/15 00:27:30;;;;;;;;;49.25;38.00;;;;;9.13;92.09;101997.09;5056822;28;45422;-65
2021/11/15 00:29:59;;;;;;;;;49.25;39.50;;;;;9.07;92.21;101995.41;5059582;28;45370;-65
2021/11/15 00:32:25;;;;;;;;;49.75;38.00;;;;;9.03;92.31;101998.00;5061614;28;45468;-65
2021/11/15 00:34:50;;;;;;;;;43.75;37.25;;;;;9.02;92.23;101999.72;5061354;28;45445;-66
2021/11/15 00:37:16;;;;;;;;;51.25;41.00;;;;;8.99;91.91;101998.84;5060713;28;45508;-66
2021/11/15 00:39:41;;;;;;;;;55.00;39.25;;;;;8.96;92.73;101998.84;5061719;28;45319;-61
2021/11/15 00:42:07;;;;;;;;;61.25;40.75;;;;;8.95;92.80;102002.31;5062438;28;45272;-62
2021/11/15 00:44:32;;;;;;;;;46.50;36.25;;;;;8.91;92.61;101998.00;5054673;28;45339;-62
2021/11/15 00:46:57;;;;;;;;;44.75;37.00;;;;;8.84;92.50;101998.00;5060716;28;45435;-62
2021/11/15 00:49:23;;;;;;;;;56.50;39.25;;;;;8.86;92.36;101997.16;5061269;28;45275;-63
2021/11/15 00:51:48;;;;;;;;;38.25;35.25;;;;;8.83;92.63;101996.28;5057761;28;45431;-63
2021/11/15 00:54:13;;;;;;;;;54.00;39.50;;;;;8.80;92.61;101995.41;5059648;28;47033;-63
2021/11/15 00:56:39;;;;;;;;;54.50;39.50;;;;;8.78;92.93;101995.41;5061188;28;45271;-63
2021/11/15 00:59:04;;;;;;;;;52.75;37.50;;;;;8.76;92.88;101991.09;5061582;28;45383;-63
2021/11/15 01:01:29;;;;;;;;;47.50;36.00;;;;;8.74;93.09;101996.28;5057237;28;45574;-63
2021/11/15 01:03:55;;;;;;;;;46.75;36.50;;;;;8.72;93.41;102003.19;5061354;28;45417;-63
2021/11/15 01:06:20;;;;;;;;;40.25;32.50;;;;;8.70;93.46;102011.81;5061180;28;45145;-63
2021/11/15 01:08:46;;;;;;;;;46.00;36.75;;;;;8.62;94.14;102008.38;5061375;28;45288;-63
2021/11/15 01:11:11;;;;;;;;;44.50;34.75;;;;;8.64;93.49;102006.66;5061045;28;45607;-64
2021/11/15 01:13:39;;;;;;;;;47.50;36.75;;;;;8.63;93.38;102008.38;5061182;28;45168;-63
2021/11/15 01:16:07;;;;;;;;;39.75;35.25;;;;;8.59;93.71;102006.63;5060804;28;45240;-63
2021/11/15 01:18:33;;;;;;;;;47.50;37.25;;;;;8.57;93.29;102005.75;5059583;28;45457;-63
2021/11/15 01:20:59;;;;;;;;;44.50;34.00;;;;;8.52;93.65;102004.88;5060949;28;45442;-63
2021/11/15 01:23:24;;;;;;;;;56.00;35.75;;;;;8.45;93.23;101996.25;5055820;28;46521;-63
2021/11/15 01:25:50;;;;;;;;;43.75;35.00;;;;;8.43;93.45;102005.75;5055307;28;45491;-63
2021/11/15 01:28:15;;;;;;;;;35.00;31.00;;;;;8.40;93.51;102003.13;5061189;28;45296;-63
2021/11/15 01:30:41;;;;;;;;;42.75;30.75;;;;;8.39;93.69;102006.59;5060679;28;45504;-62
2021/11/15 01:33:06;;;;;;;;;33.75;24.25;;;;;8.33;93.97;101996.19;5060740;28;46430;-62
2021/11/15 01:35:32;;;;;;;;;45.75;34.50;;;;;8.30;93.94;102001.38;5060811;28;45430;-62
2021/11/15 01:37:57;;;;;;;;;44.00;36.25;;;;;8.29;93.63;101998.78;5061140;28;45501;-62
2021/11/15 01:40:28;;;;;;;;;45.00;34.00;;;;;8.28;93.77;102007.41;5060475;28;45232;-62
2021/11/15 01:42:54;;;;;;;;;43.00;35.50;;;;;8.24;94.14;102009.13;5060815;28;46268;-62
2021/11/15 01:45:24;;;;;;;;;41.75;30.00;;;;;8.24;94.08;102014.31;5059513;28;45317;-62
2021/11/15 01:47:52;;;;;;;;;46.75;36.50;;;;;8.24;93.59;102019.50;5054540;28;45472;-63
2021/11/15 01:50:17;;;;;;;;;44.00;34.00;;;;;8.21;94.03;102014.31;5060241;28;46559;-63
2021/11/15 01:52:43;;;;;;;;;46.50;32.25;;;;;8.21;94.21;102009.13;5059811;28;45424;-63
2021/11/15 01:55:09;;;;;;;;;46.25;36.50;;;;;8.21;94.04;102019.50;5054497;28;45395;-63
2021/11/15 01:57:35;;;;;;;;;44.25;37.75;;;;;8.20;94.17;102013.41;5060862;28;45521;-62
2021/11/15 02:00:03;;;;;;;;;43.75;37.25;;;;;8.22;93.75;102014.31;5060284;28;45356;-62
2021/11/15 02:02:29;;;;;;;;;44.50;35.00;;;;;8.18;93.76;101996.16;5059225;28;47215;-63
2021/11/15 02:04:57;;;;;;;;;47.75;37.25;;;;;8.21;93.65;101999.63;5060162;28;45299;-63
2021/11/15 02:07:23;;;;;;;;;46.25;32.75;;;;;8.21;93.73;102011.72;5059888;28;45338;-62
2021/11/15 02:09:50;;;;;;;;;45.25;34.00;;;;;8.19;93.60;102006.50;5060079;28;45361;-62
2021/11/15 02:12:16;;;;;;;;;47.00;37.00;;;;;8.17;93.63;101997.00;5060268;28;45385;-63
2021/11/15 02:14:41;;;;;;;;;45.00;37.75;;;;;8.18;93.87;102007.38;5060265;28;45477;-62
2021/11/15 02:17:06;;;;;;;;;45.75;33.75;;;;;8.19;93.67;102010.81;5060428;28;45756;-62
2021/11/15 02:19:33;;;;;;;;;53.75;37.75;;;;;8.16;93.42;102008.22;5046708;28;45145;-62
2021/11/15 02:21:59;;;;;;;;;45.75;36.25;;;;;8.11;93.63;102009.94;5060092;28;46372;-62
2021/11/15 02:24:25;;;;;;;;;43.75;35.25;;;;;8.07;94.11;102018.56;5058074;28;45506;-62
2021/11/15 02:26:51;;;;;;;;;45.50;34.25;;;;;8.03;93.57;102019.44;5060367;28;45349;-63
2021/11/15 02:29:17;;;;;;;;;56.00;40.00;;;;;7.95;94.04;102019.38;5060066;28;45333;-62
2021/11/15 02:31:42;;;;;;;;;38.00;35.75;;;;;7.92;95.09;102019.38;5059862;28;46077;-62
2021/11/15 02:34:10;;;;;;;;;55.00;40.50;;;;;7.87;94.88;102023.69;5059851;28;45330;-61
2021/11/15 02:36:38;;;;;;;;;39.25;28.75;;;;;7.82;94.68;102015.03;5058844;28;45266;-61
2021/11/15 02:39:05;;;;;;;;;47.00;29.50;;;;;7.78;95.44;102008.09;5058376;28;45348;-61
2021/11/15 02:41:31;;;;;;;;;53.75;32.25;;;;;7.78;94.70;102010.69;5057891;28;45530;-62
2021/11/15 02:43:58;;;;;;;;;50.50;36.50;;;;;7.77;94.57;102011.53;5069390;28;45385;-61
2021/11/15 02:46:24;;;;;;;;;52.00;37.75;;;;;7.75;94.56;102001.19;5059206;28;45449;-62
2021/11/15 02:48:50;;;;;;;;;49.25;33.75;;;;;7.77;94.17;102012.41;5053309;28;45501;-61
2021/11/15 02:51:15;;;;;;;;;53.50;40.00;;;;;7.75;95.43;102008.94;5058718;28;46144;-62
2021/11/15 02:53:43;;;;;;;;;37.50;30.75;;;;;7.76;95.04;102009.81;5052812;28;45442;-61
2021/11/15 02:56:08;;;;;;;;;54.75;42.00;;;;;7.77;94.70;102008.94;5060099;28;45283;-61
2021/11/15 02:58:34;;;;;;;;;54.50;38.00;;;;;7.77;94.98;102011.53;5059758;28;45217;-63
2021/11/15 03:01:09;;;;;;;;;57.25;41.75;;;;;7.76;95.21;102005.50;5057426;28;47135;-64
2021/11/15 03:03:35;;;;;;;;;49.50;36.00;;;;;7.77;94.81;102011.53;5057026;28;45923;-63
2021/11/15 03:06:01;;;;;;;;;57.00;40.00;;;;;7.75;95.17;102016.72;5057456;28;45480;-59
2021/11/15 03:08:27;;;;;;;;;51.00;38.25;;;;;7.73;95.04;102009.81;5055510;28;45880;-59
2021/11/15 03:10:58;;;;;;;;;54.25;40.00;;;;;7.72;95.25;102014.13;5057020;28;45514;-60
2021/11/15 03:13:25;;;;;;;;;53.00;41.00;;;;;7.70;96.33;102008.06;5056901;28;45389;-60
2021/11/15 03:15:52;;;;;;;;;47.25;34.50;;;;;7.70;95.28;102008.06;5057311;28;45442;-63
2021/11/15 03:18:21;;;;;;;;;52.00;37.50;;;;;7.69;95.34;102008.06;5058395;28;45481;-62
2021/11/15 03:20:50;;;;;;;;;43.25;34.00;;;;;7.70;95.01;102005.47;5061626;28;45269;-62
2021/11/15 03:23:27;;;;;;;;;46.00;32.00;;;;;7.69;95.88;102011.50;5059103;28;45296;-62
2021/11/15 03:25:54;;;;;;;;;58.00;37.50;;;;;7.68;96.02;102007.19;5056865;28;45379;-63
2021/11/15 03:28:24;;;;;;;;;48.50;41.50;;;;;7.68;95.45;102008.91;5063143;28;45361;-62
2021/11/15 03:30:52;;;;;;;;;56.00;39.25;;;;;7.70;95.39;102009.78;5062462;28;46970;-62
2021/11/15 03:33:17;;;;;;;;;54.00;37.75;;;;;7.66;95.03;102006.34;5061230;28;45906;-62
2021/11/15 03:35:43;;;;;;;;;45.00;35.75;;;;;7.71;94.97;102016.69;5062750;28;45505;-62
2021/11/15 03:38:08;;;;;;;;;36.75;23.00;;;;;7.72;95.75;102015.84;5062684;28;45261;-62
2021/11/15 03:40:34;;;;;;;;;49.00;32.50;;;;;7.71;94.85;102017.56;5062444;28;46074;-62
2021/11/15 03:43:02;;;;;;;;;45.50;36.50;;;;;7.69;94.52;102010.66;5072595;28;45361;-62
2021/11/15 03:45:29;;;;;;;;;50.50;39.00;;;;;7.69;94.72;102014.09;5061662;28;45304;-62
2021/11/15 03:47:56;;;;;;;;;49.75;36.00;;;;;7.66;94.93;102003.75;5062438;28;45374;-63
2021/11/15 03:50:22;;;;;;;;;36.50;30.00;;;;;7.63;94.50;101995.97;5062408;28;45890;-62
2021/11/15 03:52:49;;;;;;;;;59.75;37.00;;;;;7.67;94.57;102009.78;5053139;28;46130;-63
2021/11/15 03:55:17;;;;;;;;;39.75;37.75;;;;;7.67;95.27;102012.38;5057100;28;45350;-62
2021/11/15 03:57:43;;;;;;;;;44.25;33.25;;;;;7.67;94.79;102014.97;5062525;28;45475;-61
2021/11/15 04:00:13;;;;;;;;;57.75;38.75;;;;;7.63;95.59;102017.53;5062084;28;47378;-62
2021/11/15 04:02:40;;;;;;;;;55.25;36.50;;;;;7.63;94.95;102014.09;5062512;28;45813;-62
2021/11/15 04:05:08;;;;;;;;;57.75;40.75;;;;;7.65;95.00;102027.88;5062213;28;45329;-62
2021/11/15 04:07:39;;;;;;;;;43.50;40.50;;;;;7.67;94.82;102017.53;5062498;28;45166;-61
2021/11/15 04:10:07;;;;;;;;;55.00;41.50;;;;;7.71;94.88;102029.63;5061920;28;46172;-61
2021/11/15 04:12:32;;;;;;;;;43.25;37.50;;;;;7.71;95.34;102021.88;5062199;28;45249;-62
2021/11/15 04:14:57;;;;;;;;;50.50;37.25;;;;;7.71;95.17;102016.69;5062163;28;45230;-62
2021/11/15 04:17:23;;;;;;;;;54.00;39.00;;;;;7.70;95.22;102017.56;5062449;28;45406;-62
2021/11/15 04:19:51;;;;;;;;;61.50;38.50;;;;;7.70;94.55;102026.19;5060876;28;45410;-62
2021/11/15 04:22:17;;;;;;;;;52.25;35.75;;;;;7.69;95.22;102018.41;5062269;28;45913;-62
2021/11/15 04:24:42;;;;;;;;;56.25;44.75;;;;;7.68;94.89;102021.84;5049706;28;45354;-62
2021/11/15 04:27:08;;;;;;;;;45.50;38.75;;;;;7.68;95.30;102024.44;5062168;28;45478;-62
2021/11/15 04:29:35;;;;;;;;;47.00;37.25;;;;;7.67;94.97;102018.41;5061423;28;46895;-62
2021/11/15 04:32:02;;;;;;;;;56.00;40.50;;;;;7.67;94.87;102021.00;5061186;28;45804;-62
2021/11/15 04:34:28;;;;;;;;;55.75;39.25;;;;;7.69;95.00;102014.09;5061718;28;45275;-62
2021/11/15 04:36:53;;;;;;;;;60.00;37.25;;;;;7.69;95.01;102014.09;5060136;28;45515;-62
2021/11/15 04:39:20;;;;;;;;;48.50;37.25;;;;;7.73;94.84;102012.38;5061516;28;45458;-62
2021/11/15 04:41:45;;;;;;;;;41.00;30.25;;;;;7.74;95.47;102017.56;5061914;28;46149;-62
2021/11/15 04:44:11;;;;;;;;;48.50;38.25;;;;;7.71;94.66;102008.94;5061054;28;45362;-62
2021/11/15 04:46:36;;;;;;;;;43.50;34.50;;;;;7.69;95.12;102013.25;5061051;28;45391;-62
2021/11/15 04:49:01;;;;;;;;;47.25;35.75;;;;;7.66;95.54;102001.16;5056463;28;47559;-62
2021/11/15 04:51:27;;;;;;;;;47.50;35.50;;;;;7.60;94.98;101989.03;5052046;28;45362;-62
2021/11/15 04:53:52;;;;;;;;;51.00;39.75;;;;;7.69;94.73;101997.72;5050488;28;45446;-62
2021/11/15 04:56:18;;;;;;;;;45.75;36.50;;;;;7.69;96.01;101997.72;5058969;28;45309;-62
2021/11/15 04:58:44;;;;;;;;;49.25;37.00;;;;;7.66;95.42;102001.16;5061112;28;45378;-61
2021/11/15 05:01:10;;;;;;;;;48.50;37.50;;;;;7.66;95.62;101995.13;5061305;28;45457;-60
2021/11/15 05:03:36;;;;;;;;;46.50;38.00;;;;;7.69;95.33;101998.56;5061205;28;45299;-60
2021/11/15 05:06:03;;;;;;;;;41.75;32.00;;;;;7.70;95.42;102002.03;5061418;28;45232;-61
2021/11/15 05:08:28;;;;;;;;;52.00;40.50;;;;;7.73;95.30;101999.44;5060847;28;46314;-61
2021/11/15 05:10:53;;;;;;;;;57.00;39.75;;;;;7.76;95.26;102000.31;5061340;28;45398;-60
2021/11/15 05:13:19;;;;;;;;;52.75;37.75;;;;;7.79;95.13;101999.47;5061006;28;45225;-60
2021/11/15 05:15:45;;;;;;;;;45.25;32.50;;;;;7.79;95.16;102005.50;5061376;28;45363;-61
2021/11/15 05:18:10;;;;;;;;;44.25;36.75;;;;;7.82;95.11;102004.69;5060124;28;45882;-61
2021/11/15 05:20:36;;;;;;;;;42.75;35.25;;;;;7.83;95.21;102007.28;5061391;28;45529;-59
2021/11/15 05:23:01;;;;;;;;;56.25;40.75;;;;;7.79;95.05;102002.91;5059062;28;45262;-61
2021/11/15 05:25:26;;;;;;;;;49.25;39.50;;;;;7.84;94.92;102009.00;5051416;28;45285;-59
2021/11/15 05:27:52;;;;;;;;;48.75;40.50;;;;;7.83;94.79;102009.88;5060307;28;45461;-60
2021/11/15 05:30:19;;;;;;;;;42.00;33.75;;;;;7.82;94.57;102005.53;5060539;28;45321;-61
2021/11/15 05:32:46;;;;;;;;;55.25;38.50;;;;;7.78;95.06;102000.31;5060438;28;45339;-60
2021/11/15 05:35:12;;;;;;;;;56.75;38.00;;;;;7.76;94.57;102004.63;5059279;28;45521;-59
2021/11/15 05:37:38;;;;;;;;;53.00;41.00;;;;;7.76;94.49;102007.22;5057354;28;45752;-58
2021/11/15 05:40:05;;;;;;;;;44.75;33.25;;;;;7.70;94.75;102015.84;5057554;28;45316;-61
2021/11/15 05:42:30;;;;;;;;;47.50;39.00;;;;;7.65;94.88;102016.69;5056350;28;45590;-60
2021/11/15 05:44:56;;;;;;;;;50.25;39.00;;;;;7.59;95.32;102017.47;5057303;28;45433;-60
2021/11/15 05:47:21;;;;;;;;;42.50;38.00;;;;;7.56;95.52;102012.31;5057169;28;45941;-59
2021/11/15 05:49:46;;;;;;;;;51.00;38.75;;;;;7.60;95.91;102016.63;5057915;28;45531;-60
2021/11/15 05:52:14;;;;;;;;;48.00;35.00;;;;;7.62;95.75;102023.56;5059451;28;45346;-60
2021/11/15 05:54:39;;;;;;;;;46.00;34.75;;;;;7.68;95.59;102027.03;5053658;28;45252;-60
2021/11/15 05:57:05;;;;;;;;;55.00;39.25;;;;;7.73;95.35;102026.19;5052693;28;48432;-61
2021/11/15 05:59:30;;;;;;;;;54.00;41.25;;;;;7.78;95.53;102031.38;5050658;28;45418;-61
2021/11/15 06:01:56;;;;;;;;;56.25;36.75;;;;;7.75;95.33;102033.97;5059568;28;45268;-62
2021/11/15 06:04:21;;;;;;;;;46.50;37.25;;;;;7.74;95.35;102030.50;5058416;28;45469;-63
2021/11/15 06:06:47;;;;;;;;;51.75;30.25;;;;;7.74;95.49;102035.69;5044814;28;45416;-62
2021/11/15 06:09:12;;;;;;;;;46.00;28.75;;;;;7.70;96.86;102030.50;5059526;28;45304;-63
2021/11/15 06:11:38;;;;;;;;;51.00;35.75;;;;;7.65;96.15;102027.03;5059780;28;45279;-63
2021/11/15 06:14:03;;;;;;;;;45.00;33.75;;;;;7.55;97.48;102026.97;5059504;28;45619;-63
2021/11/15 06:16:31;;;;;;;;;47.00;38.00;;;;;7.52;97.57;102028.66;5059473;28;45294;-62
2021/11/15 06:18:56;;;;;;;;;56.75;40.50;;;;;7.52;96.93;102032.13;5047349;28;45395;-62
2021/11/15 06:21:22;;;;;;;;;51.25;38.25;;;;;7.51;98.18;102030.38;5057488;28;45481;-62
2021/11/15 06:23:47;;;;;;;;;55.00;38.00;;;;;7.50;97.60;102041.59;5051248;28;45450;-62
2021/11/15 06:26:13;;;;;;;;;40.00;33.00;;;;;7.49;97.99;102041.59;5055634;28;46319;-62
2021/11/15 06:28:40;;;;;;;;;41.50;24.50;;;;;7.49;97.38;102045.03;5059294;28;45381;-60
2021/11/15 06:31:09;;;;;;;;;51.75;42.25;;;;;7.55;97.35;102041.63;5058863;28;45251;-60
2021/11/15 06:33:34;;;;;;;;;50.00;38.00;;;;;7.60;97.19;102040.78;5059846;28;45238;-60
2021/11/15 06:36:00;;;;;;;;;52.75;39.25;;;;;7.65;97.08;102027.88;5058507;28;46166;-60
2021/11/15 06:38:25;;;;;;;;;56.50;41.00;;;;;7.75;97.05;102036.53;5059776;28;45158;-60
2021/11/15 06:40:51;;;;;;;;;62.75;41.25;;;;;7.71;97.07;102037.41;5059782;28;45279;-60
2021/11/15 06:43:16;;;;;;;;;49.00;38.00;;;;;7.62;97.38;102038.22;5059961;28;45500;-60
2021/11/15 06:45:41;;;;;;;;;61.50;38.50;;;;;7.62;97.08;102044.25;5057630;28;45358;-60
2021/11/15 06:48:07;;;;;;;;;57.00;42.00;;;;;7.63;96.56;102046.00;5059050;28;45381;-61
2021/11/15 06:50:32;;;;;;;;;47.75;35.50;;;;;7.66;96.27;102046.88;5059229;28;45501;-61
2021/11/15 06:52:58;;;;;;;;;33.50;25.75;;;;;7.68;96.59;102047.72;5056012;28;45238;-61
2021/11/15 06:55:23;;;;;;;;;55.75;38.50;;;;;7.66;96.26;102045.13;5055179;28;45393;-61
2021/11/15 06:57:49;;;;;;;;;48.25;34.50;;;;;7.78;96.13;102055.53;5058818;28;45314;-60
2021/11/15 07:00:21;;;;;;;;;43.00;33.25;;;;;7.85;96.11;102056.44;5059175;28;45401;-60
2021/11/15 07:02:49;;;;;;;;;44.50;37.00;;;;;7.80;96.18;102060.72;5059069;28;45529;-61
2021/11/15 07:05:15;;;;;;;;;37.75;28.75;;;;;7.76;96.03;102070.19;5057572;28;48104;-61
2021/11/15 07:07:42;;;;;;;;;47.50;31.50;;;;;7.74;96.53;102068.47;5059064;28;45228;-61
2021/11/15 07:10:09;;;;;;;;;52.75;38.00;;;;;7.80;96.15;102073.66;5059079;28;45312;-61
2021/11/15 07:12:34;;;;;;;;;44.00;36.00;;;;;7.80;96.09;102071.06;5059136;28;45211;-64
2021/11/15 07:15:02;;;;;;;;;46.25;37.75;;;;;7.80;96.20;102077.09;5058637;28;46146;-61
2021/11/15 07:17:27;;;;;;;;;52.00;38.25;;;;;7.80;96.25;102079.69;5058558;28;45292;-61
2021/11/15 07:19:52;;;;;;;;;54.50;39.75;;;;;7.82;96.16;102078.00;5053591;28;45338;-61
2021/11/15 07:22:18;;;;;;;;;56.00;37.50;;;;;7.84;95.83;102084.06;5050789;28;45495;-61
2021/11/15 07:24:43;;;;;;;;;50.00;40.00;;;;;7.83;96.17;102078.88;5047228;28;45348;-61
2021/11/15 07:27:09;;;;;;;;;51.50;38.00;;;;;7.85;95.69;102080.59;5058744;28;45294;-61
2021/11/15 07:29:34;;;;;;;;;45.25;36.25;;;;;7.87;95.87;102070.25;5058942;28;45392;-61
2021/11/15 07:32:01;;;;;;;;;51.25;36.00;;;;;7.86;95.61;102081.47;5054300;28;45396;-61
2021/11/15 07:34:28;;;;;;;;;46.75;37.00;;;;;7.87;95.61;102084.06;5057642;28;45298;-61
2021/11/15 07:36:54;;;;;;;;;42.50;34.00;;;;;7.91;95.73;102083.22;5058154;28;45285;-61
2021/11/15 07:39:20;;;;;;;;;39.25;35.25;;;;;7.87;95.99;102083.19;5058506;28;45441;-62
2021/11/15 07:41:46;;;;;;;;;40.00;33.00;;;;;7.86;95.81;102090.09;5058588;28;45497;-61
2021/11/15 07:44:11;;;;;;;;;29.75;25.50;;;;;7.83;95.63;102091.81;5058042;28;45819;-61
2021/11/15 07:46:37;;;;;;;;;40.25;28.25;;;;;7.84;95.87;102101.31;5057811;28;45328;-61
2021/11/15 07:49:02;;;;;;;;;32.50;29.50;;;;;7.90;95.85;102101.34;5058450;28;45362;-61
2021/11/15 07:51:27;;;;;;;;;47.25;32.75;;;;;7.93;95.97;102103.94;5058553;28;45582;-61
2021/11/15 07:53:53;;;;;;;;;38.50;30.00;;;;;8.00;95.53;102095.31;5051617;28;46270;-61
2021/11/15 07:56:18;;;;;;;;;43.75;37.75;;;;;8.03;95.12;102113.50;5058564;28;45457;-60
2021/11/15 07:58:43;;;;;;;;;35.25;25.00;;;;;7.99;95.42;102108.25;5058336;28;45268;-60
2021/11/15 08:01:09;;;;;;;;;44.00;38.50;;;;;7.99;95.26;102110.84;5058695;28;45260;-61
2021/11/15 08:03:34;;;;;;;;;50.25;36.50;;;;;7.96;95.08;102106.53;5057410;28;46180;-60
2021/11/15 08:06:00;;;;;;;;;47.50;33.50;;;;;7.97;95.66;102108.25;5059709;28;45456;-60
2021/11/15 08:08:26;;;;;;;;;43.75;32.00;;;;;8.01;96.04;102125.56;5061456;28;45307;-60
2021/11/15 08:10:51;;;;;;;;;45.75;34.50;;;;;8.02;95.31;102119.53;5062034;28;45609;-60
2021/11/15 08:13:17;;;;;;;;;44.75;30.50;;;;;8.05;95.40;102121.25;5061403;28;46265;-61
2021/11/15 08:15:44;;;;;;;;;43.50;29.50;;;;;8.04;95.46;102120.41;5061874;28;45257;-62
2021/11/15 08:18:09;;;;;;;;;45.00;33.50;;;;;8.02;95.41;102116.94;5060642;28;45268;-62
2021/11/15 08:20:38;;;;;;;;;38.75;30.25;;;;;8.07;95.72;102115.22;5061777;28;45212;-62
2021/11/15 08:23:08;;;;;;;;;48.75;36.00;;;;;8.13;95.43;102110.06;5058884;28;45923;-61
2021/11/15 08:26:05;;;;;;;;;48.50;36.75;;;;;8.17;95.20;102116.13;5053261;28;45828;-61
2021/11/15 08:28:31;;;;;;;;;45.25;33.00;;;;;8.11;95.89;102123.88;5051618;28;45434;-61
2021/11/15 08:31:00;;;;;;;;;54.75;37.00;;;;;8.10;95.76;102114.38;5061312;28;45513;-61
2021/11/15 08:33:28;;;;;;;;;45.00;34.00;;;;;8.16;95.31;102125.63;5061256;28;45375;-61
2021/11/15 08:35:54;;;;;;;;;42.75;32.25;;;;;8.15;95.57;102129.06;5059209;28;45256;-61
2021/11/15 08:38:40;;;;;;;;;42.75;35.50;;;;;8.13;95.74;102125.59;5061405;28;45524;-61
2021/11/15 08:41:05;;;;;;;;;52.25;37.50;;;;;8.15;95.33;102112.66;5061029;28;45267;-61
2021/11/15 08:43:31;;;;;;;;;46.25;36.75;;;;;8.23;95.25;102117.03;5061073;28;46324;-61
2021/11/15 08:45:56;;;;;;;;;35.25;26.25;;;;;8.27;95.02;102122.22;5058591;28;45338;-61
2021/11/15 08:48:22;;;;;;;;;46.00;33.75;;;;;8.29;95.13;102121.38;5061160;28;45334;-61
2021/11/15 08:50:47;;;;;;;;;46.25;32.50;;;;;8.31;95.70;102113.59;5060857;28;45442;-61
2021/11/15 08:53:14;;;;;;;;;42.00;33.50;;;;;8.38;95.16;102115.38;5055555;28;47055;-61
2021/11/15 08:55:39;;;;;;;;;39.00;27.50;;;;;8.46;95.26;102117.16;5059959;28;45286;-61
2021/11/15 08:58:05;;;;;;;;;41.50;33.25;;;;;8.56;94.48;102124.94;5061209;28;45919;-63
2021/11/15 09:00:31;;;;;;;;;45.25;34.50;;;;;8.48;94.61;102125.78;5060901;28;45398;-63
2021/11/15 09:02:57;;;;;;;;;35.50;22.25;;;;;8.42;94.61;102120.59;5060831;28;45350;-61
2021/11/15 09:05:23;;;;;;;;;37.50;28.50;;;;;8.41;94.82;102121.47;5060854;28;45428;-60
2021/11/15 09:07:49;;;;;;;;;32.75;23.50;;;;;8.33;95.19;102111.88;5061138;28;45307;-60
2021/11/15 09:10:16;;;;;;;;;39.75;29.25;;;;;8.28;95.63;102106.69;5060561;28;45185;-60
2021/11/15 09:12:43;;;;;;;;;38.50;30.00;;;;;8.30;95.18;102111.88;5060362;28;46540;-60
2021/11/15 09:15:11;;;;;;;;;41.50;25.00;;;;;8.21;95.24;102098.03;5060116;28;45351;-60
2021/11/15 09:17:38;;;;;;;;;44.00;35.00;;;;;8.26;95.85;102100.66;5060354;28;45177;-61
2021/11/15 09:20:06;;;;;;;;;43.25;35.00;;;;;8.28;95.27;102109.28;5048139;28;45592;-62
2021/11/15 09:22:31;;;;;;;;;51.00;36.50;;;;;8.27;95.27;102107.56;5058857;28;47026;-62
2021/11/15 09:24:58;;;;;;;;;34.50;29.75;;;;;8.26;95.63;102100.66;5055750;28;45346;-61
2021/11/15 09:27:26;;;;;;;;;47.50;37.00;;;;;8.29;95.47;102107.56;5055045;28;45403;-61
2021/11/15 09:29:51;;;;;;;;;34.50;26.25;;;;;8.26;95.83;102107.53;5060716;28;45199;-59
2021/11/15 09:32:18;;;;;;;;;31.75;25.75;;;;;8.22;96.65;102107.53;5060287;28;46111;-58
2021/11/15 09:34:44;;;;;;;;;41.50;35.75;;;;;8.25;95.85;102098.91;5060234;28;45205;-58
2021/11/15 09:37:10;;;;;;;;;35.00;30.25;;;;;8.32;95.80;102108.44;5059959;28;45204;-58
2021/11/15 09:39:40;;;;;;;;;38.25;29.25;;;;;8.35;96.16;102105.00;5060037;28;45472;-58
2021/11/15 09:42:05;;;;;;;;;46.00;34.50;;;;;8.37;96.21;102114.50;5060432;28;47295;-58
2021/11/15 09:44:31;;;;;;;;;43.75;30.25;;;;;8.38;96.01;102108.47;5059659;28;45324;-57
2021/11/15 09:46:58;;;;;;;;;50.50;36.25;;;;;8.45;95.70;102110.25;5059733;28;45307;-57
2021/11/15 09:49:24;;;;;;;;;41.75;30.25;;;;;8.50;95.40;102115.44;5059461;28;45507;-57
2021/11/15 09:51:50;;;;;;;;;45.50;37.00;;;;;8.53;95.25;102121.47;5059968;28;46271;-56
2021/11/15 09:54:17;;;;;;;;;41.75;33.00;;;;;8.53;94.90;102133.56;5054232;28;45280;-56
2021/11/15 09:56:46;;;;;;;;;39.00;28.25;;;;;8.51;95.48;102132.72;5060351;28;45416;-57
2021/11/15 09:59:12;;;;;;;;;38.00;35.50;;;;;8.50;95.23;102146.53;5060375;28;45426;-57
2021/11/15 10:01:41;;;;;;;;;43.25;31.75;;;;;8.49;95.19;102137.88;5059692;28;45352;-58
2021/11/15 10:04:07;;;;;;;;;44.75;29.75;;;;;8.46;95.24;102137.88;5058845;28;46085;-57
2021/11/15 10:06:33;;;;;;;;;51.00;34.75;;;;;8.46;95.42;102121.47;5058992;28;45312;-56
2021/11/15 10:09:00;;;;;;;;;50.50;36.75;;;;;8.52;95.19;102130.13;5059910;28;45309;-57
2021/11/15 10:11:37;;;;;;;;;44.50;34.75;;;;;8.55;95.06;102121.47;5059560;28;45353;-57
2021/11/15 10:14:03;;;;;;;;;24.00;18.25;;;;;8.55;95.22;102121.47;5059769;28;45324;-57
2021/11/15 10:16:32;;;;;;;;;48.00;30.50;;;;;8.58;94.75;102124.09;5059535;28;45310;-57
2021/11/15 10:19:04;;;;;;;;;42.00;34.25;;;;;8.58;94.85;102131.84;5048454;28;45496;-57
2021/11/15 10:21:47;;;;;;;;;33.25;22.00;;;;;8.55;95.11;102124.06;5058052;28;46063;-57
2021/11/15 10:24:17;;;;;;;;;44.50;36.50;;;;;8.53;95.34;102118.03;5048637;28;45251;-57
2021/11/15 10:26:56;;;;;;;;;40.25;29.25;;;;;8.56;94.64;102119.75;5059898;28;45476;-57
2021/11/15 10:29:27;;;;;;;;;39.75;28.50;;;;;8.58;95.01;102113.72;5059269;28;45292;-57
2021/11/15 10:32:01;;;;;;;;;49.50;33.00;;;;;8.59;94.83;102124.94;5059709;28;46610;-57
2021/11/15 10:34:26;;;;;;;;;40.00;33.50;;;;;8.59;94.84;102118.03;5059203;28;45279;-57
2021/11/15 10:37:27;;;;;;;;;46.00;34.00;;;;;8.60;95.08;102112.00;5060072;28;45309;-57
2021/11/15 10:39:54;;;;;;;;;46.50;35.25;;;;;8.66;95.28;102117.22;5048073;28;45533;-58
2021/11/15 10:42:20;;;;;;;;;40.25;33.75;;;;;8.72;95.03;102111.16;5037225;28;46457;-59
2021/11/15 10:45:02;;;;;;;;;46.50;32.25;;;;;8.81;94.54;102113.78;5051840;28;45296;-58
2021/11/15 10:47:36;;;;;;;;;35.75;28.50;;;;;8.82;93.86;102106.03;5056827;28;45225;-58
2021/11/15 10:50:31;;;;;;;;;46.75;32.75;;;;;8.82;94.66;102108.63;5059516;28;45524;-57
2021/11/15 10:53:11;;;;;;;;;44.00;31.00;;;;;8.84;93.89;102106.03;5045645;28;45300;-57
2021/11/15 10:55:41;;;;;;;;;49.50;34.75;;;;;8.89;94.41;102108.63;5056954;28;45883;-61
2021/11/15 10:58:22;;;;;;;;;41.50;30.25;;;;;8.92;93.80;102100.84;5059359;28;45311;-64
2021/11/15 11:00:55;;;;;;;;;51.00;38.75;;;;;8.89;93.97;102087.88;5045112;28;45328;-63
2021/11/15 11:03:22;;;;;;;;;37.00;30.75;;;;;8.86;93.77;102090.47;5058850;28;46535;-64
2021/11/15 11:05:54;;;;;;;;;48.50;32.50;;;;;8.88;93.78;102083.56;5059248;28;45308;-63
2021/11/15 11:08:25;;;;;;;;;34.25;23.25;;;;;8.89;93.66;102093.06;5059076;28;45198;-63
2021/11/15 11:11:08;;;;;;;;;53.75;36.75;;;;;8.89;93.94;102085.28;5058667;28;45555;-64
2021/11/15 11:13:42;;;;;;;;;41.50;33.25;;;;;8.89;94.05;102093.06;5054415;28;48121;-66
2021/11/15 11:16:07;;;;;;;;;44.75;36.25;;;;;8.88;93.93;102096.50;5061193;27;45786;-64